^^
WestSenecaWeather Station Historical Data
 
Daily Summary for November 20, 2017 Units:  English    Metric   Both
Daily Weekly Monthly Yearly Custom
  Current: High: Low: Average:
Temperature: 31.9 °F 32.6 °F 31.7 °F 32.2 °F
Dew Point: 24.6 °F 25.6 °F 24.0 °F 24.7 °F
Humidity: 74% 77% 71% 74%
Wind Speed: 13.8mph 19.6mph 10.4mph 14.9mph
Wind Gust: 13.8mph 19.6mph - -
WindENE - - ENE
Pressure: 29.92 in 29.92 in 29.89 in -
Precipitation: 0.00 in      
Historical Graphs
 
 
Tabular Data for November 20, 2017
Time Temperature Dew Point Pressure Wind Wind Speed Wind Gust Humidity Rainfall Rate (Hourly) solar
00:14 32.1 °F 24.4 °F 29.89 in NE 12.7 mph 12.7 mph 73% 0.00 in 0.0 W/m2
00:19 32.2 °F 24.5 °F 29.89 in NE 18.4 mph 18.4 mph 73% 0.00 in 0.0 W/m2
00:29 32.4 °F 24.7 °F 29.89 in NNE 10.4 mph 10.4 mph 73% 0.00 in 0.0 W/m2
00:39 32.6 °F 24.2 °F 29.90 in NE 16.1 mph 16.1 mph 71% 0.00 in 0.0 W/m2
00:44 32.6 °F 24.2 °F 29.90 in North 10.4 mph 10.4 mph 71% 0.00 in 0.0 W/m2
00:49 32.5 °F 24.5 °F 29.90 in NE 15.0 mph 15.0 mph 72% 0.00 in 0.0 W/m2
00:54 32.4 °F 24.4 °F 29.90 in NE 13.8 mph 13.8 mph 72% 0.00 in 0.0 W/m2
00:59 32.3 °F 24.3 °F 29.90 in ENE 13.8 mph 13.8 mph 72% 0.00 in 0.0 W/m2
01:04 32.4 °F 24.4 °F 29.90 in NE 19.6 mph 19.6 mph 72% 0.00 in 0.0 W/m2
01:09 32.4 °F 24.0 °F 29.90 in ENE 19.6 mph 19.6 mph 71% 0.00 in 0.0 W/m2
01:14 32.4 °F 24.4 °F 29.91 in ENE 15.0 mph 15.0 mph 72% 0.00 in 0.0 W/m2
01:19 32.3 °F 24.6 °F 29.91 in East 12.0 mph 12.0 mph 73% 0.00 in 0.0 W/m2
01:29 32.3 °F 24.6 °F 29.91 in NE 15.0 mph 15.0 mph 73% 0.00 in 0.0 W/m2
01:34 32.1 °F 24.7 °F 29.91 in ENE 19.6 mph 19.6 mph 74% 0.00 in 0.0 W/m2
01:39 32.1 °F 25.4 °F 29.91 in NE 16.1 mph 16.1 mph 76% 0.00 in 0.0 W/m2
01:44 32.0 °F 25.6 °F 29.91 in NE 11.5 mph 11.5 mph 77% 0.00 in 0.0 W/m2
01:49 31.8 °F 25.4 °F 29.91 in ESE 17.3 mph 17.3 mph 77% 0.00 in 0.0 W/m2
01:59 31.7 °F 25.3 °F 29.91 in ENE 11.5 mph 11.5 mph 77% 0.00 in 0.0 W/m2
02:04 31.7 °F 25.3 °F 29.91 in ENE 17.3 mph 17.3 mph 77% 0.00 in 0.0 W/m2
02:09 31.7 °F 25.0 °F 29.92 in East 18.4 mph 18.4 mph 76% 0.00 in 0.0 W/m2
02:14 31.9 °F 24.9 °F 29.92 in North 11.5 mph 11.5 mph 75% 0.00 in 0.0 W/m2
02:15 31.9 °F 24.9 °F 29.92 in NE 15.0 mph 15.0 mph 75% 0.00 in 0.0 W/m2
02:20 31.9 °F 24.6 °F 29.92 in ENE 13.8 mph 13.8 mph 74% 0.00 in 0.0 W/m2
west seneca weather
Compliments of Weather Underground - 2 mb